Outage due to equipment failure. Site will not be transmitting information for the foreseeable future.

Latest Weather Observations for Rundle Island

IDQ60801

Issued at 10:35 pm EST Wednesday 20 August 2014 (issued every 30 minutes, with the page automatically refreshed every 10 minutes)

About weather observations | Map of weather stations | Latest weather observations for QLD | Other Formats
Station Details ID: 039322 Name: RUNDLE ISLAND Lat: -23.53 Lon: 151.28 Height: 19.8 m
Data from the previous 72 hours. | See also: Recent months at Rundle Island
Date/Time
EST
Temp
°C
App
Temp
°C
Dew
Point
Rel
Hum
%
Delta-T
°C
Wind Press
QNH
hPa
Press
MSL
hPa
Rain
since 9 am
mm
Dir
 
Spd
km/h
Gust
km/h
Spd
kts
Gust
kts
20/10:30pm 19.2 - - - - E 19 22 10 12 1020.2 1020.1 -
20/10:00pm 19.2 - - - - E 22 26 12 14 1020.2 1020.1 -
20/09:30pm 19.2 - - - - E 24 28 13 15 1020.0 1019.9 -
20/09:00pm 19.1 - - - - E 24 30 13 16 1019.9 1019.8 -
20/08:30pm 19.1 - - - - E 24 28 13 15 1020.0 1019.9 -
20/08:00pm 19.0 - - - - E 24 28 13 15 1019.9 1019.8 -
20/07:30pm 18.9 - - - - E 24 26 13 14 1019.7 1019.6 -
20/07:00pm 18.8 - - - - E 20 24 11 13 1019.4 1019.3 -
20/06:30pm 18.7 - - - - E 17 20 9 11 1019.1 1019.0 -
20/06:00pm 18.6 - - - - E 15 19 8 10 1018.6 1018.5 -
20/05:30pm 18.8 - - - - E 13 15 7 8 1018.7 1018.6 -
20/05:00pm 18.9 - - - - E 19 22 10 12 1018.1 1018.0 -
20/04:30pm 19.0 - - - - E 22 26 12 14 1017.5 1017.4 -
20/04:00pm 18.9 - - - - E 22 26 12 14 1017.1 1017.0 -
20/03:30pm 18.8 - - - - E 24 28 13 15 1016.9 1016.8 -
20/03:00pm 19.0 - - - - E 22 26 12 14 1017.1 1017.0 -
20/02:30pm 19.0 - - - - E 22 26 12 14 1017.1 1017.0 -
20/02:00pm 19.1 - - - - E 22 24 12 13 1017.0 1016.9 -
20/01:30pm 19.3 - - - - ESE 17 19 9 10 1017.1 1017.0 -
20/01:00pm 19.7 - - - - ESE 13 15 7 8 1017.5 1017.4 -
20/12:30pm 19.4 - - - - SE 15 19 8 10 1018.0 1017.9 -
20/12:00pm 19.3 - - - - SSE 19 20 10 11 1018.2 1018.1 -
20/11:30am 19.5 - - - - SSE 15 19 8 10 1018.8 1018.7 -
20/11:00am 20.0 - - - - S 15 19 8 10 1019.2 1019.1 -
20/10:30am 19.3 - - - - SSW 17 20 9 11 1019.3 1019.2 -
20/10:00am 19.0 - - - - SSW 19 20 10 11 1019.5 1019.4 -
20/09:30am 18.2 - - - - SSW 20 24 11 13 1019.5 1019.4 -
20/09:00am 17.7 - - - - S 22 24 12 13 1019.6 1019.5 -
20/08:30am 17.8 - - - - S 20 24 11 13 1019.6 1019.5 -
20/08:00am 17.6 - - - - S 20 24 11 13 1019.7 1019.6 -
20/07:30am 17.6 - - - - SSW 19 20 10 11 1019.5 1019.4 -
20/07:00am 17.4 - - - - SSW 17 19 9 10 1019.4 1019.3 -
20/06:30am 17.1 - - - - SSW 17 19 9 10 1019.1 1019.0 -
20/06:00am 17.3 - - - - SSW 17 19 9 10 1018.9 1018.8 -
20/05:30am 17.5 - - - - SSW 19 20 10 11 1018.5 1018.4 -
20/05:00am 17.3 - - - - SW 17 20 9 11 1018.1 1018.0 -
20/04:30am 17.5 - - - - SW 17 20 9 11 1017.8 1017.7 -
20/04:00am 17.5 - - - - SW 15 17 8 9 1017.5 1017.4 -
20/03:30am 17.6 - - - - SW 17 20 9 11 1017.3 1017.2 -
20/03:00am 17.9 - - - - SSW 20 24 11 13 1017.3 1017.2 -
20/02:30am 18.2 - - - - SSW 19 24 10 13 1017.2 1017.1 -
20/02:00am 18.1 - - - - SSW 20 24 11 13 1017.2 1017.1 -
20/01:30am 18.4 - - - - SSW 20 26 11 14 1017.3 1017.2 -
20/01:00am 18.3 - - - - SSW 22 28 12 15 1017.4 1017.3 -
20/12:30am 18.1 - - - - SSW 22 26 12 14 1017.6 1017.5 -
20/12:00am 18.0 - - - - SSW 24 28 13 15 1017.7 1017.6 -
 
Date/Time
EST
Temp
°C
App
Temp
°C
Dew
Point
Rel
Hum
%
Delta-T
°C
Wind Press
QNH
hPa
Press
MSL
hPa
Rain
since 9 am
mm
Dir
 
Spd
km/h
Gust
km/h
Spd
kts
Gust
kts
19/11:30pm 18.2 - - - - SSW 24 28 13 15 1017.7 1017.6 -
19/11:00pm 18.3 - - - - SW 15 17 8 9 1017.9 1017.8 -
19/10:30pm 18.3 - - - - WSW 9 13 5 7 1017.9 1017.8 -
19/10:00pm 18.8 - - - - WSW 11 15 6 8 1017.7 1017.6 -
19/09:30pm 18.9 - - - - WSW 13 15 7 8 1017.7 1017.6 -
19/09:00pm 18.8 - - - - WSW 13 15 7 8 1017.6 1017.5 -
19/08:30pm 19.6 - - - - W 13 15 7 8 1017.3 1017.2 -
19/08:00pm 19.3 - - - - W 11 13 6 7 1017.1 1017.0 -
19/07:30pm 19.6 - - - - W 11 13 6 7 1016.8 1016.7 -
19/07:00pm 19.8 - - - - W 15 17 8 9 1016.3 1016.2 -
19/06:30pm 20.1 - - - - W 11 13 6 7 1015.9 1015.8 -
19/06:00pm 20.6 - - - - W 17 19 9 10 1015.4 1015.3 -
19/05:30pm 21.3 - - - - WSW 20 24 11 13 1014.8 1014.7 -
19/05:00pm 21.7 - - - - WSW 26 32 14 17 1014.3 1014.2 -
19/04:30pm 21.9 - - - - W 26 32 14 17 1013.9 1013.8 -
19/04:00pm 22.4 - - - - W 20 30 11 16 1013.9 1013.8 -
19/03:30pm 22.8 - - - - WNW 17 26 9 14 1013.8 1013.7 -
19/03:00pm 22.3 - - - - WNW 19 26 10 14 1013.8 1013.7 -
19/02:30pm 22.5 - - - - W 20 30 11 16 1014.1 1014.0 -
19/02:00pm 22.4 - - - - WNW 17 20 9 11 1014.4 1014.3 -
19/01:30pm 22.1 - - - - W 19 22 10 12 1014.6 1014.5 -
19/01:00pm 20.9 - - - - W 13 17 7 9 1015.0 1014.9 -
19/12:30pm 22.2 - - - - E 4 7 2 4 1015.9 1015.8 -
19/12:00pm 21.3 - - - - CALM 0 4 0 2 1016.4 1016.3 -
19/11:30am 18.7 - - - - WSW 11 15 6 8 1017.1 1017.0 -
19/11:00am 18.6 - - - - SW 15 19 8 10 1017.5 1017.4 -
19/10:30am 18.0 - - - - SW 15 19 8 10 1018.1 1018.0 -
19/10:00am 17.5 - - - - SW 6 17 3 9 1018.6 1018.5 -
19/09:30am 16.9 - - - - SSW 4 7 2 4 1018.8 1018.7 -
19/09:00am 16.4 - - - - SW 13 19 7 10 1018.9 1018.8 -
19/08:30am 16.2 - - - - SW 17 24 9 13 1018.8 1018.7 -
19/08:00am 16.0 - - - - SW 17 20 9 11 1018.6 1018.5 -
19/07:30am 15.7 - - - - SSW 19 20 10 11 1018.3 1018.2 -
19/07:00am 15.8 - - - - SSW 19 22 10 12 1017.9 1017.8 -
19/06:30am 15.9 - - - - SSW 19 22 10 12 1017.6 1017.5 -
19/06:00am 16.0 - - - - SSW 20 22 11 12 1017.3 1017.2 -
19/05:30am 16.1 - - - - SW 20 22 11 12 1016.9 1016.8 -
19/05:00am 16.1 - - - - SW 22 26 12 14 1016.5 1016.4 -
19/04:30am 16.6 - - - - SW 22 24 12 13 1016.3 1016.2 -
19/04:00am 16.7 - - - - WSW 20 24 11 13 1016.1 1016.0 -
19/03:30am 16.9 - - - - WSW 19 22 10 12 1015.9 1015.8 -
19/03:00am 17.3 - - - - WSW 17 20 9 11 1015.7 1015.6 -
19/02:30am 17.8 - - - - W 15 19 8 10 1015.5 1015.4 -
19/02:00am 17.3 - - - - W 13 15 7 8 1015.5 1015.4 -
19/01:30am 17.6 - - - - WSW 11 13 6 7 1015.6 1015.5 -
19/01:00am 18.1 - - - - W 13 17 7 9 1015.6 1015.5 -
19/12:30am 18.0 - - - - WNW 15 19 8 10 1015.6 1015.5 -
19/12:00am 18.1 - - - - WNW 15 17 8 9 1015.4 1015.3 -
 
Date/Time
EST
Temp
°C
App
Temp
°C
Dew
Point
Rel
Hum
%
Delta-T
°C
Wind Press
QNH
hPa
Press
MSL
hPa
Rain
since 9 am
mm
Dir
 
Spd
km/h
Gust
km/h
Spd
kts
Gust
kts
18/11:30pm 18.9 - - - - WNW 17 19 9 10 1015.3 1015.2 -
18/11:00pm 19.3 - - - - WNW 13 15 7 8 1015.4 1015.3 -
18/10:30pm 19.7 - - - - W 17 17 9 9 1015.3 1015.2 -
18/10:00pm 19.3 - - - - W 13 17 7 9 1015.4 1015.3 -
18/09:30pm 19.5 - - - - WSW 13 15 7 8 1015.5 1015.4 -
18/09:00pm 19.6 - - - - W 13 15 7 8 1015.3 1015.2 -
18/08:30pm 19.8 - - - - WSW 17 19 9 10 1015.1 1015.0 -
18/08:00pm 20.0 - - - - WSW 15 17 8 9 1015.0 1014.9 -
18/07:30pm 20.0 - - - - WSW 17 19 9 10 1014.9 1014.8 -
18/07:00pm 20.2 - - - - WSW 15 19 8 10 1014.5 1014.4 -
18/06:30pm 20.4 - - - - SW 11 15 6 8 1014.2 1014.1 -
18/06:00pm 20.6 - - - - WSW 13 19 7 10 1013.7 1013.6 -
18/05:30pm 21.0 - - - - WSW 22 26 12 14 1013.2 1013.1 -
18/05:00pm 21.6 - - - - W 24 28 13 15 1012.9 1012.8 -
18/04:30pm 21.9 - - - - WSW 24 35 13 19 1012.4 1012.3 -
18/04:00pm 21.6 - - - - W 24 28 13 15 1012.2 1012.1 -
18/03:30pm 21.9 - - - - W 19 30 10 16 1012.0 1011.9 -
18/03:00pm 21.9 - - - - W 19 24 10 13 1012.1 1012.0 -
18/02:30pm 21.9 - - - - W 26 30 14 16 1012.2 1012.1 -
18/02:00pm 21.6 - - - - W 22 33 12 18 1012.5 1012.4 -
18/01:30pm 21.4 - - - - W 20 26 11 14 1012.8 1012.7 -
18/01:00pm 20.8 - - - - W 20 32 11 17 1013.3 1013.2 -
18/12:30pm 20.4 - - - - SW 19 26 10 14 1013.8 1013.7 -
18/12:00pm 20.6 - - - - W 20 28 11 15 1014.4 1014.3 -
18/11:30am 19.5 - - - - WSW 20 28 11 15 1015.0 1014.9 -
18/11:00am 19.3 - - - - SW 19 30 10 16 1015.4 1015.3 -
18/10:30am 18.5 - - - - WSW 17 24 9 13 1015.8 1015.7 -
18/10:00am 18.1 - - - - SW 17 22 9 12 1016.3 1016.2 -
18/09:30am 17.3 - - - - WSW 19 24 10 13 1016.5 1016.4 -
18/09:00am 17.0 - - - - W 11 15 6 8 1016.6 1016.5 -
18/08:30am 16.4 - - - - W 13 17 7 9 1016.7 1016.6 -
18/08:00am 15.9 - - - - W 15 19 8 10 1016.5 1016.4 -
18/07:30am 15.5 - - - - W 15 22 8 12 1016.2 1016.1 -
18/07:00am 15.1 - - - - W 13 15 7 8 1015.9 1015.8 -
18/06:30am 15.4 - - - - W 15 19 8 10 1015.6 1015.5 -
18/06:00am 15.2 - - - - WNW 11 13 6 7 1015.2 1015.1 -
18/05:30am 15.5 - - - - W 11 15 6 8 1014.9 1014.8 -
18/05:00am 16.0 - - - - W 15 19 8 10 1014.6 1014.5 -
18/04:30am 15.6 - - - - W 13 17 7 9 1014.3 1014.2 -
18/04:00am 15.4 - - - - W 13 15 7 8 1014.2 1014.1 -
18/03:30am 15.7 - - - - WSW 17 19 9 10 1014.2 1014.1 -
18/03:00am 15.9 - - - - WSW 20 22 11 12 1014.2 1014.1 -
18/02:30am 16.1 - - - - WSW 22 26 12 14 1014.1 1014.0 -
18/02:00am 16.1 - - - - WSW 26 28 14 15 1014.2 1014.1 -
18/01:30am 16.7 - - - - W 22 26 12 14 1014.3 1014.2 -
18/01:00am 16.5 - - - - WNW 11 13 6 7 1014.5 1014.4 -
18/12:30am 17.0 - - - - WNW 13 17 7 9 1014.3 1014.2 -
18/12:00am 17.7 - - - - W 11 13 6 7 1014.3 1014.2 -
 
Date/Time
EST
Temp
°C
App
Temp
°C
Dew
Point
Rel
Hum
%
Delta-T
°C
Wind Press
QNH
hPa
Press
MSL
hPa
Rain
since 9 am
mm
Dir
 
Spd
km/h
Gust
km/h
Spd
kts
Gust
kts
17/11:30pm 18.1 - - - - WNW 9 11 5 6 1014.2 1014.1 -
17/11:00pm 18.3 - - - - WNW 7 9 4 5 1014.1 1014.0 -

Other Formats:

Comma delimited format used in spreadsheet applications
http://www.bom.gov.au/fwo/IDQ60801/IDQ60801.94378.axf

JavaScript Object Notation format (JSON) in row-major order
http://www.bom.gov.au/fwo/IDQ60801/IDQ60801.94378.json